Ship Status Report: callsign FICK

sailwx.info

Track history (hours):
 
Tides and Currents Weather Stations Pressure Air Temp Water Temp Dewpoint Dewpoint Depression Visibility Wind Speed Wind Dir Waves Ship Positions

Callsign FICK (name unknown)

Last reported at 2018-Apr-10 06:56 UTC. Time now 2018-Apr-25 08:15 UTC.
Position N 48°53' E 002°15'.
Warning: this ship's position is 15 days out of date.

Date/timePositionNaut miles runAvg speedWind from/ knotsBaromVisibWave heightAir tempDewpointWater temp
2018-Apr-10 06:56N 48°53' E 002°15'0 0.1
2018-Apr-10 06:28N 48°53' E 002°15'1 0.0
2018-Apr-09 11:48N 48°53' E 002°15'1 0.3
2018-Apr-09 09:44N 48°53' E 002°15'0 0.0
2018-Apr-09 09:18N 48°53' E 002°15'0 0.0
2018-Apr-09 08:51N 48°53' E 002°15'0 0.0
2018-Apr-09 08:30N 48°53' E 002°15'0 0.0
2018-Apr-09 08:00N 48°53' E 002°15'0 0.0
2018-Apr-09 07:25N 48°53' E 002°15'  
2018-Apr-05 06:44N 48°53' E 002°15'1 1.2
2018-Apr-05 06:17N 48°53' E 002°15'1 0.0
2018-Apr-04 11:33N 48°54' E 002°16'0 0.9
2018-Apr-04 11:09N 48°53' E 002°15'1 0.1
2018-Apr-04 06:55N 48°53' E 002°15'3 0.1
2018-Apr-03 08:08N 48°55' E 002°19'3 7.9
2018-Apr-03 07:49N 48°53' E 002°15'1 0.4
2018-Apr-03 06:21N 48°53' E 002°15'  
2018-Mar-31 23:50N 09°11' W 079°52'411.8
2018-Mar-31 23:30N 09°13' W 079°55'3 6.6
2018-Mar-31 22:58N 09°16' W 079°55'0 0.4
2018-Mar-31 21:58N 09°17' W 079°55'0 0.6
2018-Mar-31 21:28N 09°17' W 079°55'1 2.8
2018-Mar-31 21:00N 09°18' W 079°55'3 5.6
2018-Mar-31 20:30N 09°21' W 079°55'1 2.3
2018-Mar-31 19:59N 09°22' W 079°56'0 0.0
2018-Mar-31 19:29N 09°22' W 079°56'0 0.0
2018-Mar-31 18:59N 09°22' W 079°56'0 0.0
2018-Mar-31 18:29N 09°22' W 079°56'0 0.0
2018-Mar-31 17:59N 09°22' W 079°56'0 0.0
2018-Mar-31 17:26N 09°22' W 079°56'0 0.0
2018-Mar-31 16:59N 09°22' W 079°56'0 0.0
2018-Mar-31 16:29N 09°22' W 079°56'0 0.0
2018-Mar-31 15:59N 09°22' W 079°56'0 0.0
2018-Mar-31 15:29N 09°22' W 079°56'0 0.0
2018-Mar-31 14:59N 09°22' W 079°56'0 0.0
2018-Mar-31 14:29N 09°22' W 079°56'0 0.0
2018-Mar-31 13:59N 09°22' W 079°56'0 0.0
2018-Mar-31 13:29N 09°22' W 079°56'0 0.3
2018-Mar-31 12:59N 09°22' W 079°56'1 2.4
2018-Mar-31 12:30N 09°23' W 079°55'4 7.8
2018-Mar-31 12:00N 09°27' W 079°55'1 1.2
2018-Mar-31 11:27N 09°27' W 079°56'0 0.0
2018-Mar-31 10:54N 09°27' W 079°56'0 0.0
2018-Mar-31 10:15N 09°27' W 079°56'0 0.0
2018-Mar-31 09:57N 09°27' W 079°56'0 0.0
2018-Mar-31 09:30N 09°27' W 079°56'0 0.0
2018-Mar-31 09:00N 09°27' W 079°56'49136682.0
2018-Mar-31 08:15N 48°53' E 002°15'1 1.2
2018-Mar-31 07:46N 48°53' E 002°15'491318046.3
2018-Mar-31 07:30N 09°27' W 079°56'  
Track history (hours):
 
Tides and Currents Weather Stations Pressure Air Temp Water Temp Dewpoint Dewpoint Depression Visibility Wind Speed Wind Dir Waves Ship Positions

Callsign FICK (name unknown)

Last reported at 2018-Apr-10 06:56 UTC. Time now 2018-Apr-25 08:15 UTC.
Position N 48°53' E 002°15'.
Warning: this ship's position is 15 days out of date.

Date/timePositionNaut miles runAvg speedWind from/ knotsBaromVisibWave heightAir tempDewpointWater temp
2018-Apr-10 06:56N 48°53' E 002°15'0 0.1
2018-Apr-10 06:28N 48°53' E 002°15'1 0.0
2018-Apr-09 11:48N 48°53' E 002°15'1 0.3
2018-Apr-09 09:44N 48°53' E 002°15'0 0.0
2018-Apr-09 09:18N 48°53' E 002°15'0 0.0
2018-Apr-09 08:51N 48°53' E 002°15'0 0.0
2018-Apr-09 08:30N 48°53' E 002°15'0 0.0
2018-Apr-09 08:00N 48°53' E 002°15'0 0.0
2018-Apr-09 07:25N 48°53' E 002°15'  
2018-Apr-05 06:44N 48°53' E 002°15'1 1.2
2018-Apr-05 06:17N 48°53' E 002°15'1 0.0
2018-Apr-04 11:33N 48°54' E 002°16'0 0.9
2018-Apr-04 11:09N 48°53' E 002°15'1 0.1
2018-Apr-04 06:55N 48°53' E 002°15'3 0.1
2018-Apr-03 08:08N 48°55' E 002°19'3 7.9
2018-Apr-03 07:49N 48°53' E 002°15'1 0.4
2018-Apr-03 06:21N 48°53' E 002°15'  
2018-Mar-31 23:50N 09°11' W 079°52'411.8
2018-Mar-31 23:30N 09°13' W 079°55'3 6.6
2018-Mar-31 22:58N 09°16' W 079°55'0 0.4
2018-Mar-31 21:58N 09°17' W 079°55'0 0.6
2018-Mar-31 21:28N 09°17' W 079°55'1 2.8
2018-Mar-31 21:00N 09°18' W 079°55'3 5.6
2018-Mar-31 20:30N 09°21' W 079°55'1 2.3
2018-Mar-31 19:59N 09°22' W 079°56'0 0.0
2018-Mar-31 19:29N 09°22' W 079°56'0 0.0
2018-Mar-31 18:59N 09°22' W 079°56'0 0.0
2018-Mar-31 18:29N 09°22' W 079°56'0 0.0
2018-Mar-31 17:59N 09°22' W 079°56'0 0.0
2018-Mar-31 17:26N 09°22' W 079°56'0 0.0
2018-Mar-31 16:59N 09°22' W 079°56'0 0.0
2018-Mar-31 16:29N 09°22' W 079°56'0 0.0
2018-Mar-31 15:59N 09°22' W 079°56'0 0.0
2018-Mar-31 15:29N 09°22' W 079°56'0 0.0
2018-Mar-31 14:59N 09°22' W 079°56'0 0.0
2018-Mar-31 14:29N 09°22' W 079°56'0 0.0
2018-Mar-31 13:59N 09°22' W 079°56'0 0.0
2018-Mar-31 13:29N 09°22' W 079°56'0 0.3
2018-Mar-31 12:59N 09°22' W 079°56'1 2.4
2018-Mar-31 12:30N 09°23' W 079°55'4 7.8
2018-Mar-31 12:00N 09°27' W 079°55'1 1.2
2018-Mar-31 11:27N 09°27' W 079°56'0 0.0
2018-Mar-31 10:54N 09°27' W 079°56'0 0.0
2018-Mar-31 10:15N 09°27' W 079°56'0 0.0
2018-Mar-31 09:57N 09°27' W 079°56'0 0.0
2018-Mar-31 09:30N 09°27' W 079°56'0 0.0
2018-Mar-31 09:00N 09°27' W 079°56'49136682.0
2018-Mar-31 08:15N 48°53' E 002°15'1 1.2
2018-Mar-31 07:46N 48°53' E 002°15'491318046.3
2018-Mar-31 07:30N 09°27' W 079°56'  

Dump ship's entire track history